Diomede, Alaska
Current Conditions -  °F | °C
As of 5:58 AM on Wednesday 22 Oct 2014 (Local Time) from PATE Reporting Station
Broken Clouds Broken Clouds  
Wind Chill: 23°   Ceiling: 2500
Heat Index: 23°   Visibility: 10mi
Dew Point: 21°   Wind: 3mph
Humidity: 92%   Direction: 150°SSE
Pressure: 29.78"   Gusts: NA
Location:  65.1617°N, 164.975°W
Report Text: PATE 221358Z AUTO 15003KT 10SM BKN025 M05/M06 A2978 RMK AO2 SLP097 T10501061 FZRANO
Loading
Personal Weather Stations






























Interactive Weather Map New forecast layout! Learn more

10-Day Weather Forecast

Advertisements
Track Severe Weather on mobile